createdAt,value
2022-08-01T00:00:17.286Z,101553.78
2022-08-01T00:02:46.732Z,101550.31
2022-08-01T00:05:16.197Z,101549.50
2022-08-01T00:07:45.819Z,101541.88
2022-08-01T00:10:19.335Z,101544.25
2022-08-01T00:12:49.388Z,101539.78
2022-08-01T00:15:20.336Z,101542.00
2022-08-01T00:17:49.764Z,101544.88
2022-08-01T00:20:19.154Z,101550.00
2022-08-01T00:22:50.968Z,101549.31
2022-08-01T00:25:20.431Z,101546.47
2022-08-01T00:28:09.614Z,101537.56
2022-08-01T00:30:39.540Z,101548.69
2022-08-01T00:33:08.931Z,101550.31
2022-08-01T00:35:38.339Z,101555.88
2022-08-01T00:38:07.737Z,101548.69
2022-08-01T00:40:37.153Z,101545.06
2022-08-01T00:43:07.260Z,101552.69
2022-08-01T00:45:36.699Z,101552.06
2022-08-01T00:48:06.175Z,101546.47
2022-08-01T00:50:36.113Z,101549.00
2022-08-01T00:53:06.079Z,101556.81
2022-08-01T00:55:35.955Z,101548.69
2022-08-01T00:58:06.666Z,101551.56
2022-08-01T01:00:53.097Z,101548.69
2022-08-01T01:06:28.126Z,101549.31
2022-08-01T01:09:15.715Z,101556.66
2022-08-01T01:12:04.074Z,101553.78
2022-08-01T01:14:39.856Z,101553.47
2022-08-01T01:17:12.383Z,101557.28
2022-08-01T01:19:49.022Z,101555.72
2022-08-01T01:22:28.685Z,101554.72
2022-08-01T01:25:16.355Z,101555.72
2022-08-01T01:28:01.563Z,101556.03
2022-08-01T01:30:34.048Z,101569.38
2022-08-01T01:33:07.167Z,101572.22
2022-08-01T01:35:40.195Z,101567.00
2022-08-01T01:38:18.711Z,101564.25
2022-08-01T01:40:50.502Z,101571.25
2022-08-01T01:43:20.986Z,101567.47
2022-08-01T01:45:59.795Z,101570.66
2022-08-01T01:48:30.705Z,101562.72
2022-08-01T01:51:00.758Z,101563.69
2022-08-01T01:53:31.961Z,101565.25
2022-08-01T01:56:04.202Z,101572.63
2022-08-01T01:58:36.695Z,101563.22
2022-08-01T02:01:12.408Z,101554.31
2022-08-01T02:03:47.371Z,101560.53
2022-08-01T02:06:18.443Z,101553.72
2022-08-01T02:08:50.691Z,101560.25
2022-08-01T02:11:23.186Z,101560.91
2022-08-01T02:14:05.247Z,101568.22
2022-08-01T02:16:39.926Z,101573.94
2022-08-01T02:19:09.761Z,101571.56
2022-08-01T02:21:54.696Z,101569.69
2022-08-01T02:24:44.495Z,101569.19
2022-08-01T02:27:17.352Z,101573.03
2022-08-01T02:29:54.099Z,101570.16
2022-08-01T02:32:29.314Z,101564.09
2022-08-01T02:35:00.900Z,101571.88
2022-08-01T02:37:32.725Z,101565.06
2022-08-01T02:40:03.758Z,101566.16
2022-08-01T02:42:36.131Z,101554.56
2022-08-01T02:45:09.511Z,101566.16
2022-08-01T02:47:41.933Z,101563.81
2022-08-01T02:50:13.474Z,101569.84
2022-08-01T02:52:45.556Z,101569.84
2022-08-01T02:55:15.628Z,101567.97
2022-08-01T02:57:52.048Z,101570.50
2022-08-01T03:00:24.769Z,101567.31
2022-08-01T03:02:56.289Z,101566.84
2022-08-01T03:05:27.908Z,101562.88
2022-08-01T03:08:02.823Z,101560.34
2022-08-01T03:10:35.113Z,101563.50
2022-08-01T03:13:05.294Z,101557.16
2022-08-01T03:15:39.023Z,101565.88
2022-08-01T03:18:11.321Z,101567.97
2022-08-01T03:20:42.551Z,101564.94
2022-08-01T03:23:14.992Z,101565.72
2022-08-01T03:25:46.881Z,101562.84
2022-08-01T03:28:24.388Z,101565.72
2022-08-01T03:31:00.754Z,101561.44
2022-08-01T03:33:30.339Z,101557.78
2022-08-01T03:36:02.626Z,101563.69
2022-08-01T03:38:38.180Z,101567.03
2022-08-01T03:41:15.296Z,101567.50
2022-08-01T03:43:50.342Z,101571.47
2022-08-01T03:46:26.045Z,101575.00
2022-08-01T03:48:58.864Z,101574.66
2022-08-01T03:51:28.928Z,101582.00
2022-08-01T03:54:04.800Z,101578.50
2022-08-01T03:56:35.351Z,101573.56
2022-08-01T03:59:07.711Z,101587.25
2022-08-01T04:01:37.755Z,101590.09
2022-08-01T04:04:10.764Z,101586.75
2022-08-01T04:06:47.183Z,101590.44
2022-08-01T04:09:19.783Z,101590.59
2022-08-01T04:11:49.217Z,101588.34
2022-08-01T04:14:19.036Z,101587.22
2022-08-01T04:16:48.384Z,101586.75
2022-08-01T04:19:18.103Z,101592.00
2022-08-01T04:21:47.485Z,101588.03
2022-08-01T04:24:20.356Z,101592.97
2022-08-01T04:26:51.339Z,101592.81
2022-08-01T04:29:23.004Z,101598.53
2022-08-01T04:31:53.967Z,101603.44
2022-08-01T04:34:26.441Z,101606.94
2022-08-01T04:36:58.260Z,101602.34
2022-08-01T04:39:31.881Z,101602.34
2022-08-01T04:42:04.910Z,101613.31
2022-08-01T04:44:36.249Z,101607.75
2022-08-01T04:47:08.775Z,101611.38
2022-08-01T04:49:49.057Z,101617.09
2022-08-01T04:52:23.034Z,101622.38
2022-08-01T04:54:54.100Z,101619.19
2022-08-01T04:57:23.451Z,101626.97
2022-08-01T04:59:57.816Z,101624.25
2022-08-01T05:02:29.254Z,101615.19
2022-08-01T05:04:58.882Z,101615.50
2022-08-01T05:07:28.270Z,101615.34
2022-08-01T05:09:57.731Z,101617.22
2022-08-01T05:12:27.088Z,101621.22
2022-08-01T05:14:56.791Z,101629.03
2022-08-01T05:17:26.358Z,101620.13
2022-08-01T05:19:55.748Z,101619.50
2022-08-01T05:22:26.573Z,101631.88
2022-08-01T05:24:56.410Z,101620.72
2022-08-01T05:27:26.572Z,101622.28
2022-08-01T05:29:58.065Z,101632.28
2022-08-01T05:32:28.263Z,101637.38
2022-08-01T05:35:01.548Z,101641.34
2022-08-01T05:37:30.891Z,101638.47
2022-08-01T05:40:00.218Z,101647.72
2022-08-01T05:42:29.616Z,101641.97
2022-08-01T05:44:58.926Z,101647.06
2022-08-01T05:47:28.244Z,101638.81
2022-08-01T05:49:57.557Z,101646.91
2022-08-01T05:52:26.922Z,101641.34
2022-08-01T05:54:56.214Z,101632.94
2022-08-01T05:57:25.544Z,101632.13
2022-08-01T05:59:55.280Z,101639.75
2022-08-01T06:02:24.820Z,101639.13
2022-08-01T06:04:54.259Z,101648.97
2022-08-01T06:07:23.655Z,101648.28
2022-08-01T06:09:52.978Z,101649.41
2022-08-01T06:12:22.288Z,101648.13
2022-08-01T06:14:52.642Z,101645.72
2022-08-01T06:17:21.968Z,101650.06
2022-08-01T06:19:51.341Z,101650.84
2022-08-01T06:22:20.752Z,101648.59
2022-08-01T06:24:51.223Z,101656.22
2022-08-01T06:27:21.679Z,101647.75
2022-08-01T06:29:54.480Z,101645.16
2022-08-01T06:32:27.917Z,101646.53
2022-08-01T06:34:58.409Z,101653.06
2022-08-01T06:37:27.899Z,101646.19
2022-08-01T06:39:57.199Z,101648.38
2022-08-01T06:42:26.545Z,101665.25
2022-08-01T06:44:55.947Z,101665.06
2022-08-01T06:47:25.240Z,101673.03
2022-08-01T06:49:57.387Z,101669.78
2022-08-01T06:52:26.755Z,101676.28
2022-08-01T06:54:57.047Z,101678.16
2022-08-01T06:57:26.451Z,101676.47
2022-08-01T06:59:56.649Z,101683.47
2022-08-01T07:02:26.908Z,101674.66
2022-08-01T07:04:56.212Z,101679.16
2022-08-01T07:07:25.617Z,101673.91
2022-08-01T07:09:57.576Z,101673.72
2022-08-01T07:12:26.914Z,101679.09
2022-08-01T07:14:56.204Z,101675.03
2022-08-01T07:17:25.628Z,101679.56
2022-08-01T07:19:55.588Z,101680.03
2022-08-01T07:22:27.055Z,101671.13
2022-08-01T07:24:56.461Z,101678.78
2022-08-01T07:27:26.296Z,101675.22
2022-08-01T07:29:55.845Z,101681.19
2022-08-01T07:32:25.380Z,101680.34
2022-08-01T07:34:54.766Z,101684.91
2022-08-01T07:37:47.686Z,101665.78
2022-08-01T07:40:17.675Z,101678.00
2022-08-01T07:42:47.243Z,101682.34
2022-08-01T07:45:17.323Z,101684.22
2022-08-01T07:47:50.555Z,101678.88
2022-08-01T07:50:20.199Z,101692.66
2022-08-01T07:52:49.527Z,101695.34
2022-08-01T07:55:18.830Z,101690.75
2022-08-01T07:57:48.119Z,101696.34
2022-08-01T08:00:17.780Z,101701.38
2022-08-01T08:02:47.418Z,101703.75
2022-08-01T08:05:16.863Z,101702.25
2022-08-01T08:08:09.099Z,101703.66
2022-08-01T08:10:38.677Z,101699.38
2022-08-01T08:13:10.781Z,101697.41
2022-08-01T08:15:42.526Z,101700.38
2022-08-01T08:18:17.564Z,101707.03
2022-08-01T08:20:47.235Z,101705.84
2022-08-01T08:23:41.949Z,101704.06
2022-08-01T08:26:14.347Z,101702.66
2022-08-01T08:28:43.707Z,101696.72
2022-08-01T08:31:25.572Z,101708.00
2022-08-01T08:34:02.804Z,101707.63
2022-08-01T08:36:32.445Z,101702.03
2022-08-01T08:39:03.396Z,101709.84
2022-08-01T08:41:37.706Z,101709.88
2022-08-01T08:44:12.823Z,101709.03
2022-08-01T08:46:48.016Z,101707.72
2022-08-01T08:49:26.860Z,101711.28
2022-08-01T08:51:57.493Z,101714.97
2022-08-01T08:54:31.031Z,101714.75
2022-08-01T08:57:02.773Z,101706.16
2022-08-01T08:59:32.780Z,101707.34
2022-08-01T09:02:03.293Z,101712.47
2022-08-01T09:04:32.813Z,101728.03
2022-08-01T09:07:02.145Z,101721.13
2022-08-01T09:09:31.535Z,101721.34
2022-08-01T09:12:01.790Z,101724.50
2022-08-01T09:14:32.480Z,101727.94
2022-08-01T09:17:11.965Z,101725.56
2022-08-01T09:19:44.359Z,101735.50
2022-08-01T09:22:19.184Z,101736.84
2022-08-01T09:25:13.939Z,101736.22
2022-08-01T09:27:46.200Z,101729.50
2022-08-01T09:30:23.737Z,101743.00
2022-08-01T09:32:59.393Z,101745.69
2022-08-01T09:35:36.269Z,101743.03
2022-08-01T09:38:20.611Z,101747.34
2022-08-01T09:41:01.747Z,101738.69
2022-08-01T09:43:33.324Z,101741.56
2022-08-01T09:46:08.383Z,101734.94
2022-08-01T09:48:43.144Z,101760.25
2022-08-01T09:51:59.932Z,101745.47
2022-08-01T09:54:37.456Z,101749.44
2022-08-01T09:57:17.966Z,101743.09
2022-08-01T09:59:58.685Z,101738.84
2022-08-01T10:02:44.189Z,101745.75
2022-08-01T10:05:18.903Z,101752.09
2022-08-01T10:08:07.993Z,101743.03
2022-08-01T10:10:37.718Z,101743.88
2022-08-01T10:13:09.776Z,101737.66
2022-08-01T10:15:39.448Z,101742.59
2022-08-01T10:18:16.605Z,101741.53
2022-08-01T10:20:57.978Z,101747.06
2022-08-01T10:23:39.867Z,101742.56
2022-08-01T10:26:11.797Z,101747.69
2022-08-01T10:28:42.354Z,101752.38
2022-08-01T10:31:14.666Z,101760.63
2022-08-01T10:33:50.487Z,101749.75
2022-08-01T10:36:25.355Z,101759.94
2022-08-01T10:38:57.794Z,101758.06
2022-08-01T10:41:28.330Z,101758.06
2022-08-01T10:43:58.720Z,101761.28
2022-08-01T10:46:28.879Z,101762.22
2022-08-01T10:49:09.310Z,101766.63
2022-08-01T10:51:52.424Z,101765.03
2022-08-01T10:54:28.781Z,101752.78
2022-08-01T10:57:04.102Z,101757.22
2022-08-01T10:59:58.916Z,101759.38
2022-08-01T11:02:33.047Z,101760.03
2022-08-01T11:05:10.844Z,101765.94
2022-08-01T11:07:49.800Z,101758.72
2022-08-01T11:10:33.990Z,101759.72
2022-08-01T11:13:08.495Z,101760.59
2022-08-01T11:15:49.940Z,101777.44
2022-08-01T11:18:33.863Z,101784.94
2022-08-01T11:21:58.808Z,101779.81
2022-08-01T11:23:57.771Z,101779.63
2022-08-01T11:26:29.884Z,101786.34
2022-08-01T11:29:21.467Z,101781.78
2022-08-01T11:31:53.028Z,101784.03
2022-08-01T11:34:22.727Z,101794.25
2022-08-01T11:37:00.066Z,101798.69
2022-08-01T11:39:29.763Z,101790.25
2022-08-01T11:42:19.257Z,101796.88
2022-08-01T11:44:54.275Z,101795.78
2022-08-01T11:47:47.080Z,101805.59
2022-08-01T11:50:36.716Z,101801.66
2022-08-01T11:53:08.674Z,101801.06
2022-08-01T11:55:40.976Z,101806.00
2022-08-01T11:58:22.539Z,101800.56
2022-08-01T12:01:00.946Z,101791.41
2022-08-01T12:03:34.301Z,101791.09
2022-08-01T12:06:04.347Z,101785.75
2022-08-01T12:08:37.958Z,101782.75
2022-08-01T12:11:08.233Z,101789.66
2022-08-01T12:13:49.063Z,101786.44
2022-08-01T12:16:18.514Z,101784.34
2022-08-01T12:18:53.962Z,101779.06
2022-08-01T12:21:24.042Z,101787.22
2022-08-01T12:24:06.894Z,101795.66
2022-08-01T12:26:45.499Z,101797.88
2022-08-01T12:29:34.849Z,101802.06
2022-08-01T12:32:04.297Z,101800.50
2022-08-01T12:34:35.219Z,101801.97
2022-08-01T12:37:06.155Z,101803.91
2022-08-01T12:39:40.072Z,101802.81
2022-08-01T12:42:17.760Z,101804.38
2022-08-01T12:44:50.235Z,101806.22
2022-08-01T12:47:20.503Z,101807.28
2022-08-01T12:49:50.916Z,101800.03
2022-08-01T12:52:26.796Z,101806.41
2022-08-01T12:55:12.197Z,101814.06
2022-08-01T12:57:45.623Z,101805.41
2022-08-01T13:00:19.131Z,101802.50
2022-08-01T13:02:50.850Z,101803.91
2022-08-01T13:05:20.996Z,101803.22
2022-08-01T13:07:54.324Z,101796.53
2022-08-01T13:10:32.263Z,101804.41
2022-08-01T13:13:02.353Z,101799.44
2022-08-01T13:15:35.688Z,101798.28
2022-08-01T13:18:31.851Z,101808.13
2022-08-01T13:21:20.747Z,101792.28
2022-08-01T13:24:11.879Z,101799.81
2022-08-01T13:26:49.633Z,101799.88
2022-08-01T13:29:24.659Z,101799.63
2022-08-01T13:31:54.189Z,101812.81
2022-08-01T13:34:36.759Z,101800.56
2022-08-01T13:37:06.154Z,101813.91
2022-08-01T13:39:48.532Z,101798.97
2022-08-01T13:42:19.951Z,101800.28
2022-08-01T13:44:50.854Z,101790.94
2022-08-01T13:47:30.079Z,101793.22
2022-08-01T13:50:04.204Z,101787.78
2022-08-01T13:52:34.423Z,101794.19
2022-08-01T13:55:04.773Z,101788.50
2022-08-01T13:57:42.986Z,101787.41
2022-08-01T14:00:13.616Z,101781.78
2022-08-01T14:02:43.399Z,101780.69
2022-08-01T14:05:12.928Z,101776.56
2022-08-01T14:07:42.319Z,101774.81
2022-08-01T14:10:18.804Z,101777.00
2022-08-01T14:12:50.590Z,101777.88
2022-08-01T14:15:38.319Z,101788.34
2022-08-01T14:18:10.783Z,101782.31
2022-08-01T14:20:41.893Z,101778.38
2022-08-01T14:23:12.224Z,101782.91
2022-08-01T14:26:03.728Z,101781.31
2022-08-01T14:28:32.365Z,101778.72
2022-08-01T14:31:01.872Z,101793.09
2022-08-01T14:33:31.947Z,101783.94
2022-08-01T14:36:28.670Z,101784.84
2022-08-01T14:38:53.354Z,101782.91
2022-08-01T14:41:22.743Z,101781.31
2022-08-01T14:43:52.020Z,101784.63
2022-08-01T14:46:21.447Z,101777.28
2022-08-01T14:48:50.858Z,101769.44
2022-08-01T14:51:20.322Z,101773.66
2022-08-01T14:53:52.990Z,101784.63
2022-08-01T14:56:22.882Z,101773.66
2022-08-01T14:58:52.253Z,101768.63
2022-08-01T15:01:21.655Z,101765.56
2022-08-01T15:03:51.694Z,101770.09
2022-08-01T15:06:21.177Z,101770.84
2022-08-01T15:08:50.571Z,101771.84
2022-08-01T15:11:19.887Z,101775.03
2022-08-01T15:14:09.169Z,101772.63
2022-08-01T15:16:38.491Z,101774.41
2022-08-01T15:19:08.162Z,101778.72
2022-08-01T15:21:42.057Z,101769.78
2022-08-01T15:24:12.940Z,101774.69
2022-08-01T15:26:42.284Z,101781.03
2022-08-01T15:29:13.110Z,101782.50
2022-08-01T15:31:42.482Z,101772.41
2022-08-01T15:34:11.930Z,101775.94
2022-08-01T15:36:43.439Z,101767.78
2022-08-01T15:39:15.999Z,101780.28
2022-08-01T15:41:45.460Z,101785.25
2022-08-01T15:44:14.816Z,101781.13
2022-08-01T15:46:44.399Z,101772.69
2022-08-01T15:49:13.728Z,101782.50
2022-08-01T15:51:43.063Z,101787.97
2022-08-01T15:54:14.723Z,101777.34
2022-08-01T15:56:44.592Z,101787.03
2022-08-01T15:59:16.946Z,101791.00
2022-08-01T16:01:46.505Z,101797.38
2022-08-01T16:04:21.132Z,101798.88
2022-08-01T16:06:56.592Z,101797.81
2022-08-01T16:09:26.950Z,101799.81
2022-08-01T16:11:56.388Z,101796.63
2022-08-01T16:14:25.824Z,101793.00
2022-08-01T16:16:55.112Z,101793.00
2022-08-01T16:19:24.632Z,101801.00
2022-08-01T16:21:54.357Z,101794.53
2022-08-01T16:24:23.783Z,101779.50
2022-08-01T16:26:53.114Z,101782.72
2022-08-01T16:29:22.515Z,101793.25
2022-08-01T16:32:08.090Z,101800.09
2022-08-01T16:34:46.843Z,101800.84
2022-08-01T16:37:17.552Z,101798.41
2022-08-01T16:39:47.542Z,101805.44
2022-08-01T16:42:17.118Z,101793.03
2022-08-01T16:44:46.729Z,101789.53
2022-08-01T16:47:19.210Z,101784.66
2022-08-01T16:49:48.964Z,101781.34
2022-08-01T16:52:18.983Z,101780.06
2022-08-01T16:54:48.599Z,101779.47
2022-08-01T16:57:17.903Z,101783.47
2022-08-01T16:59:47.384Z,101778.91
2022-08-01T17:02:16.899Z,101775.22
2022-08-01T17:04:46.259Z,101786.31
2022-08-01T17:07:15.587Z,101775.78
2022-08-01T17:09:44.977Z,101777.94
2022-08-01T17:12:18.778Z,101780.00
2022-08-01T17:14:51.593Z,101776.81
2022-08-01T17:17:21.127Z,101784.63
2022-08-01T17:19:51.892Z,101785.34
2022-08-01T17:22:21.496Z,101779.97
2022-08-01T17:24:51.199Z,101776.50
2022-08-01T17:27:21.195Z,101783.47
2022-08-01T17:29:50.653Z,101781.63
2022-08-01T17:32:20.496Z,101784.53
2022-08-01T17:34:50.152Z,101781.06
2022-08-01T17:37:19.508Z,101784.66
2022-08-01T17:39:48.976Z,101796.28
2022-08-01T17:42:18.292Z,101793.59
2022-08-01T17:44:49.045Z,101803.78
2022-08-01T17:47:48.041Z,101794.44
2022-08-01T17:50:14.421Z,101789.81
2022-08-01T17:52:43.947Z,101789.28
2022-08-01T17:55:53.798Z,101792.63
2022-08-01T18:06:58.507Z,101795.44
2022-08-01T18:10:11.802Z,101798.06
2022-08-01T18:50:41.386Z,101828.25
2022-08-01T20:08:55.573Z,101882.59
2022-08-01T20:11:25.216Z,101887.50
2022-08-01T20:13:54.838Z,101886.66
2022-08-01T20:16:24.393Z,101881.41
2022-08-01T20:18:54.442Z,101889.50
2022-08-01T20:21:25.695Z,101893.94
2022-08-01T20:24:03.955Z,101873.19
2022-08-01T20:26:33.811Z,101889.53
2022-08-01T20:29:03.312Z,101878.38
2022-08-01T20:31:34.657Z,101891.84
2022-08-01T20:34:19.846Z,101888.16
2022-08-01T20:36:56.721Z,101878.06
2022-08-01T20:39:28.646Z,101869.25
2022-08-01T20:41:59.559Z,101879.22
2022-08-01T20:44:32.537Z,101879.03
2022-08-01T20:47:05.031Z,101882.25
2022-08-01T20:49:35.639Z,101884.00
2022-08-01T20:52:11.571Z,101879.78
2022-08-01T20:54:45.698Z,101881.88
2022-08-01T20:57:29.727Z,101891.06
2022-08-01T21:00:08.083Z,101880.81
2022-08-01T21:02:52.457Z,101888.03
2022-08-01T21:05:32.790Z,101890.22
2022-08-01T21:08:25.001Z,101883.97
2022-08-01T21:11:02.087Z,101893.22
2022-08-01T21:13:43.320Z,101892.66
2022-08-01T21:16:23.826Z,101887.31
2022-08-01T21:22:00.112Z,101894.88
2022-08-01T21:24:36.981Z,101888.47
2022-08-01T21:27:07.157Z,101894.31
2022-08-01T21:29:38.178Z,101901.81
2022-08-01T21:32:16.182Z,101892.56
2022-08-01T21:34:49.514Z,101898.03
2022-08-01T21:37:20.090Z,101894.28
2022-08-01T21:39:50.104Z,101900.00
2022-08-01T21:42:19.541Z,101898.03
2022-08-01T21:44:49.945Z,101899.41
2022-08-01T21:47:19.648Z,101899.16
2022-08-01T21:49:49.189Z,101892.41
2022-08-01T21:52:22.791Z,101900.63
2022-08-01T21:55:01.261Z,101898.34
2022-08-01T21:57:58.292Z,101897.91
2022-08-01T22:00:28.003Z,101891.41
2022-08-01T22:03:25.363Z,101898.94
2022-08-01T22:05:57.047Z,101891.47
2022-08-01T22:08:56.366Z,101899.53
2022-08-01T22:11:33.685Z,101895.28
2022-08-01T22:14:06.298Z,101890.22
2022-08-01T22:16:40.845Z,101883.13
2022-08-01T22:19:44.235Z,101878.03
2022-08-01T22:22:04.614Z,101871.09
2022-08-01T22:24:53.592Z,101868.00
2022-08-01T22:28:07.773Z,101870.53
2022-08-01T22:30:18.653Z,101882.72
2022-08-01T22:33:15.794Z,101887.19
2022-08-01T22:35:43.163Z,101860.56
2022-08-01T22:38:13.050Z,101876.50
2022-08-01T22:40:50.786Z,101874.09
2022-08-01T22:43:44.599Z,101874.88
2022-08-01T22:46:13.875Z,101881.81
2022-08-01T22:48:55.499Z,101878.81
2022-08-01T22:51:27.887Z,101889.63
2022-08-01T22:54:09.852Z,101888.47
2022-08-01T22:56:44.727Z,101877.72
2022-08-01T22:59:18.424Z,101885.88
2022-08-01T23:01:51.750Z,101872.38
2022-08-01T23:04:37.390Z,101881.28
2022-08-01T23:07:09.033Z,101882.50
2022-08-01T23:09:48.070Z,101879.75
2022-08-01T23:12:26.058Z,101876.81
2022-08-01T23:15:00.118Z,101878.88
2022-08-01T23:17:32.593Z,101867.91
2022-08-01T23:20:04.409Z,101868.00
2022-08-01T23:22:35.953Z,101873.88
2022-08-01T23:25:09.167Z,101866.31
2022-08-01T23:27:52.003Z,101863.28
2022-08-01T23:30:34.545Z,101870.91
2022-08-01T23:33:04.871Z,101861.75
2022-08-01T23:35:38.774Z,101883.16
2022-08-01T23:38:10.952Z,101879.06
2022-08-01T23:40:40.864Z,101867.34
2022-08-01T23:43:16.950Z,101866.66
2022-08-01T23:46:04.449Z,101857.91
2022-08-01T23:48:36.365Z,101857.03
2022-08-01T23:51:07.660Z,101860.22
2022-08-01T23:53:39.059Z,101851.34
2022-08-01T23:56:08.651Z,101848.88
2022-08-01T23:58:38.015Z,101824.00
